createdAt,value
2023-03-26T00:00:26.649Z,101127.13
2023-03-26T00:05:29.445Z,101126.91
2023-03-26T00:10:32.082Z,101116.47
2023-03-26T00:15:37.930Z,101118.13
2023-03-26T00:20:41.827Z,101107.47
2023-03-26T00:25:46.256Z,101108.75
2023-03-26T00:30:51.337Z,101108.78
2023-03-26T00:35:56.015Z,101103.47
2023-03-26T00:41:06.297Z,101095.91
2023-03-26T00:46:11.598Z,101089.13
2023-03-26T00:51:16.375Z,101100.63
2023-03-26T00:56:19.573Z,101099.19
2023-03-26T01:01:29.133Z,101093.22
2023-03-26T01:06:36.660Z,101077.63
2023-03-26T01:11:39.519Z,101091.03
2023-03-26T01:16:47.511Z,101094.94
2023-03-26T01:21:50.148Z,101095.97
2023-03-26T01:26:53.077Z,101101.53
2023-03-26T01:32:14.369Z,101092.06
2023-03-26T01:37:30.752Z,101099.28
2023-03-26T01:43:05.658Z,101098.06
2023-03-26T01:48:08.417Z,101086.34
2023-03-26T01:53:29.814Z,101092.50
2023-03-26T01:58:40.053Z,101085.94
2023-03-26T02:03:59.493Z,101091.25
2023-03-26T02:09:11.269Z,101102.13
2023-03-26T02:14:15.128Z,101091.06
2023-03-26T02:19:22.343Z,101084.50
2023-03-26T02:24:28.066Z,101081.44
2023-03-26T02:29:37.989Z,101088.41
2023-03-26T02:34:42.171Z,101085.13
2023-03-26T02:39:45.624Z,101084.50
2023-03-26T02:45:01.785Z,101086.97
2023-03-26T02:50:22.590Z,101084.69
2023-03-26T02:55:45.579Z,101091.88
2023-03-26T03:00:51.041Z,101093.50
2023-03-26T03:06:22.269Z,101087.72
2023-03-26T03:11:27.646Z,101083.63
2023-03-26T03:16:30.954Z,101075.19
2023-03-26T03:21:38.643Z,101061.84
2023-03-26T03:26:42.559Z,101051.81
2023-03-26T03:31:57.409Z,101043.81
2023-03-26T03:37:24.861Z,101043.03
2023-03-26T03:42:30.004Z,101039.47
2023-03-26T03:47:36.593Z,101033.50
2023-03-26T03:52:59.338Z,101040.06
2023-03-26T03:58:02.427Z,101031.59
2023-03-26T04:03:06.685Z,101023.75
2023-03-26T04:08:10.352Z,101030.09
2023-03-26T04:13:26.958Z,101038.66
2023-03-26T04:18:53.713Z,101032.13
2023-03-26T04:23:57.140Z,101035.22
2023-03-26T04:29:24.673Z,101025.13
2023-03-26T04:34:30.209Z,101031.59
2023-03-26T04:39:42.131Z,101033.81
2023-03-26T04:45:04.943Z,101023.59
2023-03-26T04:50:09.576Z,101035.44
2023-03-26T04:55:36.907Z,101026.91
2023-03-26T05:00:47.897Z,101030.00
2023-03-26T05:05:51.830Z,101024.78
2023-03-26T05:10:57.592Z,101024.03
2023-03-26T05:16:07.510Z,101016.31
2023-03-26T05:21:16.242Z,101022.16
2023-03-26T05:26:20.264Z,101023.94
2023-03-26T05:31:23.386Z,101023.88
2023-03-26T05:36:30.245Z,101014.56
2023-03-26T05:41:53.205Z,100997.13
2023-03-26T05:46:58.112Z,101003.31
2023-03-26T05:52:02.759Z,101010.44
2023-03-26T05:57:13.885Z,101004.84
2023-03-26T06:02:35.313Z,101004.84
2023-03-26T06:07:57.885Z,100999.78
2023-03-26T06:13:07.063Z,100998.13
2023-03-26T06:18:13.258Z,101002.09
2023-03-26T06:23:36.248Z,100999.13
2023-03-26T06:28:38.864Z,100986.44
2023-03-26T06:34:07.526Z,100980.97
2023-03-26T06:39:10.733Z,100962.97
2023-03-26T06:44:21.610Z,100961.75
2023-03-26T06:49:44.243Z,100957.25
2023-03-26T06:55:08.900Z,100938.88
2023-03-26T07:00:33.862Z,100940.56
2023-03-26T07:05:54.917Z,100927.00
2023-03-26T07:11:29.682Z,100913.94
2023-03-26T07:16:51.774Z,100907.09
2023-03-26T07:22:21.804Z,100900.53
2023-03-26T07:27:43.438Z,100895.75
2023-03-26T07:32:46.770Z,100876.91
2023-03-26T07:38:27.639Z,100862.53
2023-03-26T07:43:54.434Z,100848.78
2023-03-26T07:49:33.022Z,100848.78
2023-03-26T07:54:59.806Z,100855.38
2023-03-26T08:00:42.424Z,100841.13
2023-03-26T08:05:53.950Z,100834.63
2023-03-26T08:11:54.373Z,100813.13
2023-03-26T08:17:06.156Z,100813.53
2023-03-26T08:22:15.798Z,100804.22
2023-03-26T08:27:40.554Z,100798.56
2023-03-26T08:32:49.557Z,100799.03
2023-03-26T08:37:52.397Z,100787.78
2023-03-26T08:43:24.834Z,100791.97
2023-03-26T08:48:52.109Z,100787.59
2023-03-26T08:54:12.672Z,100778.91
2023-03-26T08:59:33.040Z,100782.59
2023-03-26T09:05:13.214Z,100779.63
2023-03-26T09:10:41.527Z,100772.09
2023-03-26T09:16:05.620Z,100758.41
2023-03-26T09:21:14.052Z,100758.09
2023-03-26T09:26:59.610Z,100748.22
2023-03-26T09:32:31.790Z,100733.84
2023-03-26T09:37:56.794Z,100725.97
2023-03-26T09:43:34.612Z,100715.59
2023-03-26T09:48:46.287Z,100700.13
2023-03-26T09:54:07.017Z,100711.47
2023-03-26T09:59:30.443Z,100704.56
2023-03-26T10:05:05.303Z,100697.41
2023-03-26T10:10:35.721Z,100689.03
2023-03-26T10:16:05.904Z,100681.69
2023-03-26T10:21:24.621Z,100679.69
2023-03-26T10:26:36.841Z,100666.47
2023-03-26T10:31:47.903Z,100671.75
2023-03-26T10:37:25.350Z,100662.78
2023-03-26T10:42:46.087Z,100661.03
2023-03-26T10:48:11.627Z,100662.06
2023-03-26T10:53:28.219Z,100650.63
2023-03-26T10:58:48.804Z,100646.28
2023-03-26T11:04:16.609Z,100639.75
2023-03-26T11:09:18.961Z,100643.09
2023-03-26T11:14:34.220Z,100639.84
2023-03-26T11:19:41.957Z,100628.03
2023-03-26T11:24:56.191Z,100624.66
2023-03-26T11:30:17.407Z,100617.16
2023-03-26T11:35:40.590Z,100609.22
2023-03-26T11:40:51.209Z,100599.53
2023-03-26T11:46:20.998Z,100593.06
2023-03-26T11:51:34.424Z,100584.00
2023-03-26T11:57:04.541Z,100570.06
2023-03-26T12:02:14.080Z,100566.19
2023-03-26T12:07:32.187Z,100566.66
2023-03-26T12:12:41.166Z,100552.72
2023-03-26T12:17:44.060Z,100549.16
2023-03-26T12:22:48.022Z,100526.47
2023-03-26T12:27:53.273Z,100534.94
2023-03-26T12:33:04.054Z,100523.00
2023-03-26T12:38:35.991Z,100527.81
2023-03-26T12:44:55.269Z,100522.88
2023-03-26T12:49:15.925Z,100522.59
2023-03-26T12:54:36.763Z,100506.44
2023-03-26T13:00:02.316Z,100498.09
2023-03-26T13:05:33.246Z,100492.13
2023-03-26T13:10:42.214Z,100498.16
2023-03-26T13:15:52.787Z,100485.84
2023-03-26T13:21:38.497Z,100477.69
2023-03-26T13:26:54.879Z,100477.31
2023-03-26T13:32:25.225Z,100469.59
2023-03-26T13:37:42.430Z,100456.56
2023-03-26T13:43:23.617Z,100449.53
2023-03-26T13:48:32.674Z,100435.47
2023-03-26T13:54:04.944Z,100428.47
2023-03-26T13:59:23.016Z,100426.41
2023-03-26T14:04:37.200Z,100421.44
2023-03-26T14:10:11.634Z,100418.34
2023-03-26T14:15:36.752Z,100404.38
2023-03-26T14:21:00.817Z,100393.16
2023-03-26T14:26:38.364Z,100401.13
2023-03-26T14:32:01.764Z,100392.59
2023-03-26T14:37:35.187Z,100384.00
2023-03-26T14:42:43.786Z,100374.31
2023-03-26T14:48:20.244Z,100371.13
2023-03-26T14:53:33.722Z,100359.88
2023-03-26T14:59:07.829Z,100349.69
2023-03-26T15:04:34.759Z,100338.44
2023-03-26T15:10:01.537Z,100330.44
2023-03-26T15:15:45.720Z,100322.66
2023-03-26T15:21:30.892Z,100314.81
2023-03-26T15:26:41.981Z,100300.84
2023-03-26T15:31:47.788Z,100285.00
2023-03-26T15:37:12.197Z,100273.44
2023-03-26T15:42:17.816Z,100274.81
2023-03-26T15:47:41.456Z,100257.56
2023-03-26T15:53:09.912Z,100261.66
2023-03-26T15:58:53.747Z,100254.09
2023-03-26T16:04:30.252Z,100256.56
2023-03-26T16:09:47.959Z,100253.66
2023-03-26T16:15:21.518Z,100257.44
2023-03-26T16:20:33.224Z,100263.38
2023-03-26T16:26:27.882Z,100256.91
2023-03-26T16:31:38.692Z,100265.56
2023-03-26T16:36:51.829Z,100266.28
2023-03-26T16:42:23.708Z,100257.03
2023-03-26T16:47:38.956Z,100269.06
2023-03-26T16:53:02.902Z,100255.31
2023-03-26T16:58:22.119Z,100258.50
2023-03-26T17:03:52.255Z,100266.28
2023-03-26T17:09:07.510Z,100275.03
2023-03-26T17:14:11.054Z,100266.13
2023-03-26T17:19:42.193Z,100268.84
2023-03-26T17:24:54.512Z,100267.22
2023-03-26T17:30:54.049Z,100260.50
2023-03-26T17:36:12.064Z,100257.25
2023-03-26T17:41:35.468Z,100257.50
2023-03-26T17:46:48.478Z,100256.84
2023-03-26T17:51:54.462Z,100251.94
2023-03-26T17:57:04.323Z,100250.50
2023-03-26T18:02:16.257Z,100241.69
2023-03-26T18:07:44.303Z,100229.34
2023-03-26T18:13:05.252Z,100216.47
2023-03-26T18:18:20.082Z,100209.47
2023-03-26T18:23:47.600Z,100196.06
2023-03-26T18:29:08.560Z,100189.63
2023-03-26T18:34:20.362Z,100185.34
2023-03-26T18:39:22.828Z,100193.72
2023-03-26T18:44:25.645Z,100196.16
2023-03-26T18:49:30.040Z,100196.63
2023-03-26T18:54:42.912Z,100199.25
2023-03-26T18:59:46.036Z,100212.41
2023-03-26T19:04:51.152Z,100197.25
2023-03-26T19:09:56.694Z,100191.63
2023-03-26T19:15:09.835Z,100175.72
2023-03-26T19:20:22.280Z,100163.56
2023-03-26T19:25:55.107Z,100173.81
2023-03-26T19:31:26.182Z,100176.53
2023-03-26T19:36:34.906Z,100155.50
2023-03-26T19:41:42.386Z,100150.09
2023-03-26T19:46:53.887Z,100140.97
2023-03-26T19:52:15.357Z,100131.22
2023-03-26T19:57:18.286Z,100141.09
2023-03-26T20:02:20.856Z,100140.28
2023-03-26T20:07:35.318Z,100122.53
2023-03-26T20:12:38.908Z,100124.88
2023-03-26T20:17:43.117Z,100120.97
2023-03-26T20:22:47.258Z,100109.22
2023-03-26T20:27:49.926Z,100099.66
2023-03-26T20:33:12.589Z,100092.22
2023-03-26T20:38:17.077Z,100086.06
2023-03-26T20:43:24.424Z,100078.63
2023-03-26T20:48:26.951Z,100067.53
2023-03-26T20:53:30.721Z,100084.00
2023-03-26T20:58:33.443Z,100061.13
2023-03-26T21:03:54.301Z,100081.69
2023-03-26T21:08:57.143Z,100069.41
2023-03-26T21:14:10.377Z,100054.16
2023-03-26T21:19:16.058Z,100058.13
2023-03-26T21:24:54.449Z,100064.56
2023-03-26T21:29:58.395Z,100060.28
2023-03-26T21:35:01.405Z,100044.69
2023-03-26T21:40:23.808Z,100028.31
2023-03-26T21:45:26.956Z,100029.63
2023-03-26T21:50:30.084Z,100030.75
2023-03-26T21:55:51.826Z,100031.72
2023-03-26T22:01:13.098Z,100043.72
2023-03-26T22:06:32.475Z,100033.56
2023-03-26T22:11:35.020Z,100031.03
2023-03-26T22:16:37.888Z,100025.50
2023-03-26T22:21:40.472Z,100002.16
2023-03-26T22:26:43.182Z,100015.59
2023-03-26T22:31:45.893Z,100004.94
2023-03-26T22:36:48.521Z,100020.53
2023-03-26T22:41:51.092Z,100026.88
2023-03-26T22:46:54.751Z,100018.91
2023-03-26T22:51:57.357Z,100034.97
2023-03-26T22:57:00.370Z,100044.94
2023-03-26T23:02:03.073Z,100041.47
2023-03-26T23:07:05.923Z,100020.19
2023-03-26T23:12:08.477Z,100044.00
2023-03-26T23:17:14.805Z,100054.41
2023-03-26T23:22:20.355Z,100044.75
2023-03-26T23:27:23.170Z,100045.31
2023-03-26T23:32:25.902Z,100041.19
2023-03-26T23:37:29.731Z,100054.84
2023-03-26T23:42:50.565Z,100059.63
2023-03-26T23:47:53.172Z,100067.19
2023-03-26T23:52:59.100Z,100059.41
2023-03-26T23:58:02.818Z,100060.47
